Charlotte, North Carolina
Current Conditions -  °F | °C
As of 1:52 AM on Saturday 29 Nov 2014 (Local Time) from KCLT Reporting Station
Few Clouds Few Clouds  
Wind Chill:   Ceiling: Unl
Heat Index:   Visibility: 10mi
Dew Point: -5°   Wind: 0mph
Humidity: 66%   Direction: NA
Pressure: 30.28"   Gusts: NA
Location:  35.22°N, 80.84°W
Report Text: KCLT 290652Z 00000KT 10SM FEW250 01/M05 A3028 RMK AO2 SLP256 T00061050
Loading
Personal Weather Stations






























Interactive Weather Map New forecast layout! Learn more

10-Day Weather Forecast

Advertisements
Track Severe Weather on mobile